Weather at Naishi Airport

Public forecast

Using degrees Celsius for public forecast. Weather courtesy of forecast.io.

Closest aviation weather report (METAR) to Naishi Airport

Closest report is Nakuru Airport, 10.5 nm (19.5 km) NNE.

2024/07/20 19:00 (retrieved 1 hour ago)

HKNK 201900Z 00000KT 9999 SCT018 BKN080 17/14

Closest aviation forecast (TAF) to Naishi Airport

Forecast is more than 6 hours old.

Closest forecast is Nairobi Wilson Airport, 68.0 nm (125.8 km) SE.

2024/07/20 12:36 (retrieved 7 hours ago)

TAF HKNW 201100Z 2012/2112 14008KT 9999 BKN024 BECMG 2018/2021 VRB02KT BKN018 BECMG 2108/2111 17010KT BKN022 BKN080